createdAt,value
2019-04-14T00:00:23.151Z,4.09
2019-04-14T00:02:51.163Z,4.05
2019-04-14T00:05:21.820Z,4.00
2019-04-14T00:07:51.820Z,4.00
2019-04-14T00:10:22.556Z,3.99
2019-04-14T00:12:53.423Z,4.01
2019-04-14T00:15:32.988Z,4.04
2019-04-14T00:17:58.995Z,4.06
2019-04-14T00:20:29.326Z,4.05
2019-04-14T00:22:59.790Z,4.08
2019-04-14T00:25:30.504Z,4.05
2019-04-14T00:28:00.757Z,4.06
2019-04-14T00:30:31.605Z,4.04
2019-04-14T00:33:04.138Z,4.04
2019-04-14T00:36:06.482Z,4.09
2019-04-14T00:38:39.133Z,4.10
2019-04-14T00:41:40.303Z,4.14
2019-04-14T00:44:10.313Z,4.17
2019-04-14T00:46:45.349Z,4.16
2019-04-14T00:49:15.779Z,4.15
2019-04-14T00:51:50.759Z,4.19
2019-04-14T00:54:21.672Z,4.19
2019-04-14T00:56:58.919Z,4.21
2019-04-14T00:59:29.041Z,4.18
2019-04-14T01:01:59.713Z,4.19
2019-04-14T01:04:29.566Z,4.19
2019-04-14T01:07:00.142Z,4.19
2019-04-14T01:09:30.517Z,4.25
2019-04-14T01:12:01.819Z,4.25
2019-04-14T01:14:32.004Z,4.25
2019-04-14T01:17:02.764Z,4.24
2019-04-14T01:19:33.101Z,4.26
2019-04-14T01:22:03.258Z,4.23
2019-04-14T01:24:33.671Z,4.22
2019-04-14T01:27:03.946Z,4.24
2019-04-14T01:29:34.140Z,4.27
2019-04-14T01:32:04.862Z,4.31
2019-04-14T01:34:34.859Z,4.35
2019-04-14T01:37:05.244Z,4.37
2019-04-14T01:39:35.086Z,4.36
2019-04-14T01:42:05.506Z,4.38
2019-04-14T01:44:35.485Z,4.32
2019-04-14T01:47:07.420Z,4.32
2019-04-14T01:49:37.631Z,4.31
2019-04-14T01:52:32.454Z,4.31
2019-04-14T01:55:33.252Z,4.35
2019-04-14T01:58:34.351Z,4.35
2019-04-14T02:01:26.246Z,4.35
2019-04-14T02:03:56.324Z,4.35
2019-04-14T02:06:26.921Z,4.37
2019-04-14T02:08:56.984Z,4.38
2019-04-14T02:11:27.047Z,4.34
2019-04-14T02:13:57.235Z,4.31
2019-04-14T02:16:34.926Z,4.30
2019-04-14T02:18:58.730Z,4.27
2019-04-14T02:21:28.655Z,4.27
2019-04-14T02:23:58.421Z,4.26
2019-04-14T02:26:28.737Z,4.28
2019-04-14T02:28:59.234Z,4.30
2019-04-14T02:31:57.021Z,4.35
2019-04-14T02:34:34.219Z,4.35
2019-04-14T02:37:04.764Z,4.37
2019-04-14T02:39:46.722Z,4.34
2019-04-14T02:44:43.966Z,4.35
2019-04-14T02:47:26.986Z,4.33
2019-04-14T02:49:47.151Z,4.31
2019-04-14T02:52:12.107Z,4.31
2019-04-14T02:54:51.667Z,4.30
2019-04-14T02:57:17.365Z,4.29
2019-04-14T03:04:50.600Z,4.29
2019-04-14T03:07:34.302Z,4.28
2019-04-14T03:10:04.838Z,4.31
2019-04-14T03:15:03.458Z,4.27
2019-04-14T03:17:47.715Z,4.30
2019-04-14T03:20:34.887Z,4.33
2019-04-14T03:23:19.508Z,4.30
2019-04-14T03:25:43.047Z,4.32
2019-04-14T03:28:36.519Z,4.28
2019-04-14T03:34:18.144Z,4.27
2019-04-14T03:36:59.795Z,4.28
2019-04-14T03:38:55.871Z,4.29
2019-04-14T03:41:16.579Z,4.30
2019-04-14T03:43:54.517Z,4.33
2019-04-14T03:46:25.137Z,4.33
2019-04-14T03:51:44.597Z,4.36
2019-04-14T03:53:48.962Z,4.35
2019-04-14T03:56:31.933Z,4.34
2019-04-14T03:59:02.004Z,4.30
2019-04-14T04:01:32.325Z,4.31
2019-04-14T04:04:03.256Z,4.27
2019-04-14T04:06:33.546Z,4.27
2019-04-14T04:09:06.271Z,4.27
2019-04-14T04:11:36.638Z,4.24
2019-04-14T04:14:07.468Z,4.18
2019-04-14T04:16:48.439Z,4.13
2019-04-14T04:19:25.126Z,4.13
2019-04-14T04:22:13.085Z,4.10
2019-04-14T04:25:02.898Z,4.11
2019-04-14T04:27:39.709Z,4.05
2019-04-14T04:30:27.717Z,4.04
2019-04-14T04:33:19.979Z,4.03
2019-04-14T04:35:54.327Z,4.00
2019-04-14T04:38:31.300Z,4.00
2019-04-14T04:41:01.599Z,3.99
2019-04-14T04:43:31.870Z,3.92
2019-04-14T04:46:02.663Z,3.86
2019-04-14T04:48:32.881Z,3.84
2019-04-14T04:51:02.955Z,3.86
2019-04-14T04:53:33.050Z,3.84
2019-04-14T04:56:03.608Z,3.87
2019-04-14T04:58:33.502Z,3.86
2019-04-14T05:01:03.756Z,3.88
2019-04-14T05:03:33.956Z,3.87
2019-04-14T05:06:46.415Z,3.85
2019-04-14T05:09:29.495Z,3.83
2019-04-14T05:12:13.225Z,3.84
2019-04-14T05:15:03.336Z,3.84
2019-04-14T05:17:34.210Z,3.85
2019-04-14T05:20:05.373Z,3.82
2019-04-14T05:22:37.929Z,3.82
2019-04-14T05:25:08.073Z,3.81
2019-04-14T05:27:38.727Z,3.80
2019-04-14T05:30:09.184Z,3.78
2019-04-14T05:32:39.166Z,3.81
2019-04-14T05:35:09.766Z,3.82
2019-04-14T05:37:40.046Z,3.87
2019-04-14T05:40:08.740Z,3.88
2019-04-14T05:42:37.042Z,3.86
2019-04-14T05:45:06.612Z,3.87
2019-04-14T05:47:35.256Z,3.87
2019-04-14T05:50:03.588Z,3.92
2019-04-14T05:52:31.929Z,3.93
2019-04-14T05:55:00.390Z,3.94
2019-04-14T05:57:30.771Z,3.98
2019-04-14T06:00:01.784Z,4.00
2019-04-14T06:02:33.575Z,4.03
2019-04-14T06:05:03.738Z,4.13
2019-04-14T06:07:33.598Z,4.16
2019-04-14T06:10:04.257Z,4.17
2019-04-14T06:12:34.407Z,4.21
2019-04-14T06:15:04.950Z,4.23
2019-04-14T06:17:34.825Z,4.32
2019-04-14T06:20:05.789Z,4.37
2019-04-14T06:22:35.465Z,4.41
2019-04-14T06:25:06.787Z,4.47
2019-04-14T06:27:37.330Z,4.57
2019-04-14T06:30:35.793Z,4.62
2019-04-14T06:33:12.751Z,4.64
2019-04-14T06:36:06.624Z,4.66
2019-04-14T06:38:38.750Z,4.68
2019-04-14T06:41:10.716Z,4.68
2019-04-14T06:43:48.786Z,4.75
2019-04-14T06:46:12.281Z,4.81
2019-04-14T06:48:42.270Z,4.94
2019-04-14T06:51:12.183Z,5.05
2019-04-14T06:53:42.399Z,5.16
2019-04-14T06:56:12.309Z,5.22
2019-04-14T06:58:42.225Z,5.29
2019-04-14T07:01:12.873Z,5.36
2019-04-14T07:03:42.679Z,5.48
2019-04-14T07:06:12.627Z,5.61
2019-04-14T07:08:42.498Z,5.75
2019-04-14T07:11:12.410Z,5.94
2019-04-14T07:13:47.856Z,6.13
2019-04-14T07:16:14.677Z,6.31
2019-04-14T07:18:44.376Z,6.39
2019-04-14T07:21:14.344Z,6.52
2019-04-14T07:23:44.049Z,6.69
2019-04-14T07:26:14.048Z,6.87
2019-04-14T07:28:55.969Z,7.08
2019-04-14T07:31:49.490Z,7.18
2019-04-14T07:34:36.738Z,7.35
2019-04-14T07:37:19.167Z,7.53
2019-04-14T07:39:58.492Z,7.65
2019-04-14T07:42:34.937Z,7.95
2019-04-14T07:45:13.174Z,8.19
2019-04-14T07:47:48.107Z,8.45
2019-04-14T07:50:35.683Z,8.63
2019-04-14T07:53:27.499Z,8.72
2019-04-14T07:56:15.093Z,9.00
2019-04-14T07:58:54.837Z,9.17
2019-04-14T08:01:29.083Z,9.32
2019-04-14T08:04:17.587Z,9.39
2019-04-14T08:06:49.517Z,9.55
2019-04-14T08:09:18.111Z,9.71
2019-04-14T08:11:46.461Z,9.95
2019-04-14T08:14:14.850Z,10.20
2019-04-14T08:16:44.470Z,10.35
2019-04-14T08:19:12.847Z,10.47
2019-04-14T08:21:41.144Z,10.67
2019-04-14T08:24:09.900Z,10.84
2019-04-14T08:26:38.511Z,10.88
2019-04-14T08:29:06.956Z,11.06
2019-04-14T08:31:35.256Z,10.94
2019-04-14T08:34:04.722Z,10.98
2019-04-14T08:36:33.429Z,11.09
2019-04-14T08:39:02.033Z,11.21
2019-04-14T08:41:38.588Z,11.29
2019-04-14T08:44:14.739Z,11.45
2019-04-14T08:47:01.904Z,11.62
2019-04-14T08:50:04.628Z,11.71
2019-04-14T08:52:37.680Z,11.85
2019-04-14T08:55:20.383Z,11.78
2019-04-14T08:58:22.885Z,11.88
2019-04-14T09:00:56.032Z,12.04
2019-04-14T09:03:43.982Z,12.05
2019-04-14T09:06:34.734Z,12.12
2019-04-14T09:09:11.509Z,12.14
2019-04-14T09:12:14.553Z,12.28
2019-04-14T09:14:32.752Z,12.42
2019-04-14T09:17:01.152Z,12.49
2019-04-14T09:19:30.148Z,12.52
2019-04-14T09:21:58.501Z,12.40
2019-04-14T09:24:28.625Z,12.33
2019-04-14T09:26:58.321Z,12.46
2019-04-14T09:29:28.048Z,12.61
2019-04-14T09:31:57.744Z,12.62
2019-04-14T09:34:28.170Z,12.71
2019-04-14T09:36:58.167Z,12.98
2019-04-14T09:39:28.022Z,13.06
2019-04-14T09:41:57.711Z,13.14
2019-04-14T09:44:28.146Z,13.40
2019-04-14T09:46:58.073Z,13.46
2019-04-14T09:49:27.982Z,13.50
2019-04-14T09:51:58.036Z,13.52
2019-04-14T09:54:28.605Z,13.53
2019-04-14T09:56:58.546Z,13.52
2019-04-14T09:59:28.550Z,13.62
2019-04-14T10:01:58.559Z,13.70
2019-04-14T10:04:28.448Z,13.82
2019-04-14T10:06:58.586Z,13.76
2019-04-14T10:09:28.689Z,13.73
2019-04-14T10:11:58.414Z,13.74
2019-04-14T10:14:28.319Z,13.69
2019-04-14T10:17:01.011Z,13.78
2019-04-14T10:19:30.007Z,13.90
2019-04-14T10:22:04.212Z,14.08
2019-04-14T10:24:34.124Z,14.32
2019-04-14T10:27:05.206Z,14.27
2019-04-14T10:29:34.898Z,14.24
2019-04-14T10:32:05.179Z,14.41
2019-04-14T10:34:35.034Z,14.60
2019-04-14T10:37:05.323Z,14.81
2019-04-14T10:39:35.249Z,14.94
2019-04-14T10:42:05.183Z,14.97
2019-04-14T10:44:35.026Z,15.03
2019-04-14T10:47:05.002Z,15.07
2019-04-14T10:49:34.889Z,14.96
2019-04-14T10:52:05.220Z,15.01
2019-04-14T10:54:35.025Z,15.07
2019-04-14T10:57:05.632Z,15.15
2019-04-14T10:59:35.373Z,15.20
2019-04-14T11:02:06.093Z,15.24
2019-04-14T11:04:35.834Z,15.47
2019-04-14T11:07:11.215Z,15.69
2019-04-14T11:09:41.196Z,15.81
2019-04-14T11:12:11.098Z,15.87
2019-04-14T11:14:41.034Z,15.79
2019-04-14T11:17:11.942Z,15.47
2019-04-14T11:19:42.703Z,15.21
2019-04-14T11:22:12.389Z,15.00
2019-04-14T11:24:42.248Z,14.94
2019-04-14T11:27:12.835Z,14.75
2019-04-14T11:29:43.574Z,14.45
2019-04-14T11:32:24.931Z,14.51
2019-04-14T11:35:03.802Z,14.73
2019-04-14T11:37:49.599Z,15.00
2019-04-14T11:40:22.350Z,15.27
2019-04-14T11:42:52.864Z,15.41
2019-04-14T11:45:22.283Z,15.55
2019-04-14T11:47:50.567Z,15.77
2019-04-14T11:50:18.856Z,15.82
2019-04-14T11:52:47.157Z,15.91
2019-04-14T11:55:16.535Z,15.96
2019-04-14T11:57:44.942Z,16.11
2019-04-14T12:00:32.671Z,16.03
2019-04-14T12:03:21.253Z,15.67
2019-04-14T12:06:16.314Z,15.85
2019-04-14T12:08:55.979Z,15.96
2019-04-14T12:11:25.727Z,15.96
2019-04-14T12:13:56.558Z,15.84
2019-04-14T12:16:26.472Z,15.80
2019-04-14T12:18:56.163Z,15.81
2019-04-14T12:21:26.090Z,15.68
2019-04-14T12:23:56.013Z,15.52
2019-04-14T12:26:25.741Z,15.35
2019-04-14T12:28:56.065Z,15.33
2019-04-14T12:31:26.499Z,15.52
2019-04-14T12:33:58.640Z,15.59
2019-04-14T12:36:28.626Z,15.50
2019-04-14T12:39:00.702Z,15.65
2019-04-14T12:41:38.067Z,15.83
2019-04-14T12:44:25.927Z,15.77
2019-04-14T12:47:15.616Z,15.61
2019-04-14T12:49:47.054Z,15.43
2019-04-14T12:52:25.369Z,15.43
2019-04-14T12:54:55.250Z,15.08
2019-04-14T12:57:37.070Z,15.09
2019-04-14T13:00:12.451Z,14.98
2019-04-14T13:02:46.254Z,14.87
2019-04-14T13:05:16.258Z,14.66
2019-04-14T13:07:47.391Z,14.49
2019-04-14T13:10:17.666Z,14.40
2019-04-14T13:12:47.898Z,14.58
2019-04-14T13:15:17.812Z,14.88
2019-04-14T13:17:47.491Z,15.08
2019-04-14T13:20:17.712Z,15.03
2019-04-14T13:22:48.495Z,14.91
2019-04-14T13:25:18.314Z,14.82
2019-04-14T13:27:49.442Z,14.92
2019-04-14T13:30:23.569Z,14.86
2019-04-14T13:32:53.601Z,14.84
2019-04-14T13:35:24.437Z,14.63
2019-04-14T13:37:54.351Z,14.42
2019-04-14T13:40:24.281Z,14.30
2019-04-14T13:42:54.165Z,14.22
2019-04-14T13:45:23.859Z,14.09
2019-04-14T13:47:53.701Z,13.99
2019-04-14T13:50:24.781Z,13.93
2019-04-14T13:52:54.846Z,13.94
2019-04-14T13:55:24.520Z,13.93
2019-04-14T13:57:54.270Z,13.93
2019-04-14T14:00:24.339Z,13.80
2019-04-14T14:02:53.399Z,13.77
2019-04-14T14:05:22.687Z,13.81
2019-04-14T14:07:51.052Z,13.66
2019-04-14T14:10:20.854Z,13.61
2019-04-14T14:13:02.577Z,13.55
2019-04-14T14:15:47.699Z,13.69
2019-04-14T14:18:50.313Z,13.83
2019-04-14T14:21:28.900Z,14.07
2019-04-14T14:24:23.627Z,14.13
2019-04-14T14:26:54.670Z,14.11
2019-04-14T14:29:24.351Z,13.95
2019-04-14T14:31:54.470Z,13.86
2019-04-14T14:34:24.305Z,13.86
2019-04-14T14:36:55.101Z,13.99
2019-04-14T14:39:25.046Z,14.01
2019-04-14T14:41:54.731Z,14.14
2019-04-14T14:44:27.688Z,14.17
2019-04-14T14:47:09.990Z,14.04
2019-04-14T14:49:49.263Z,13.81
2019-04-14T14:52:20.515Z,13.65
2019-04-14T14:54:50.879Z,13.60
2019-04-14T14:57:20.906Z,13.49
2019-04-14T14:59:50.862Z,13.47
2019-04-14T15:02:21.308Z,13.55
2019-04-14T15:04:51.471Z,13.74
2019-04-14T15:07:21.450Z,13.83
2019-04-14T15:09:56.964Z,13.78
2019-04-14T15:12:27.420Z,13.70
2019-04-14T15:14:57.344Z,13.61
2019-04-14T15:17:27.419Z,13.57
2019-04-14T15:19:57.176Z,13.56
2019-04-14T15:22:27.416Z,13.47
2019-04-14T15:24:57.443Z,13.43
2019-04-14T15:27:27.524Z,13.46
2019-04-14T15:29:58.603Z,13.53
2019-04-14T15:32:28.584Z,13.58
2019-04-14T15:34:58.274Z,13.66
2019-04-14T15:37:28.455Z,13.67
2019-04-14T15:40:00.473Z,13.61
2019-04-14T15:42:30.179Z,13.57
2019-04-14T15:45:10.454Z,13.43
2019-04-14T15:48:05.692Z,13.29
2019-04-14T15:51:01.096Z,13.18
2019-04-14T15:53:47.784Z,12.98
2019-04-14T15:56:36.702Z,12.82
2019-04-14T15:59:25.666Z,12.81
2019-04-14T16:02:27.795Z,12.78
2019-04-14T16:05:26.131Z,12.68
2019-04-14T16:08:08.863Z,12.56
2019-04-14T16:11:00.745Z,12.42
2019-04-14T16:13:34.195Z,12.44
2019-04-14T16:16:11.747Z,12.38
2019-04-14T16:19:01.316Z,12.38
2019-04-14T16:21:31.262Z,12.47
2019-04-14T16:24:01.169Z,12.47
2019-04-14T16:26:59.435Z,12.46
2019-04-14T16:29:36.745Z,12.43
2019-04-14T16:32:20.821Z,12.45
2019-04-14T16:34:56.669Z,12.35
2019-04-14T16:37:26.651Z,12.25
2019-04-14T16:39:56.566Z,12.11
2019-04-14T16:42:27.103Z,12.06
2019-04-14T16:44:57.018Z,12.00
2019-04-14T16:47:27.866Z,11.95
2019-04-14T16:49:58.435Z,11.87
2019-04-14T16:52:33.776Z,11.81
2019-04-14T16:55:29.601Z,11.84
2019-04-14T16:58:20.925Z,11.71
2019-04-14T17:00:59.420Z,11.67
2019-04-14T17:03:29.698Z,11.60
2019-04-14T17:05:59.844Z,11.52
2019-04-14T17:08:29.831Z,11.45
2019-04-14T17:10:59.827Z,11.42
2019-04-14T17:13:32.493Z,11.37
2019-04-14T17:16:15.548Z,11.33
2019-04-14T17:18:52.989Z,11.28
2019-04-14T17:21:36.213Z,11.24
2019-04-14T17:24:24.876Z,11.24
2019-04-14T17:27:02.454Z,11.15
2019-04-14T17:30:00.655Z,11.10
2019-04-14T17:32:52.706Z,11.04
2019-04-14T17:35:32.443Z,10.99
2019-04-14T17:38:07.911Z,10.93
2019-04-14T17:41:08.538Z,10.90
2019-04-14T17:43:57.478Z,10.87
2019-04-14T17:46:50.767Z,10.88
2019-04-14T17:49:39.726Z,10.78
2019-04-14T17:52:30.379Z,10.65
2019-04-14T17:55:12.258Z,10.51
2019-04-14T17:58:00.454Z,10.49
2019-04-14T18:00:49.139Z,10.47
2019-04-14T18:03:26.146Z,10.42
2019-04-14T18:05:59.441Z,10.34
2019-04-14T18:08:41.827Z,10.32
2019-04-14T18:11:25.059Z,10.31
2019-04-14T18:14:16.293Z,10.30
2019-04-14T18:17:07.886Z,10.25
2019-04-14T18:19:56.807Z,10.23
2019-04-14T18:22:26.742Z,10.26
2019-04-14T18:24:58.442Z,10.18
2019-04-14T18:27:32.846Z,10.15
2019-04-14T18:30:19.694Z,10.11
2019-04-14T18:33:04.139Z,10.05
2019-04-14T18:35:46.287Z,10.06
2019-04-14T18:38:28.605Z,10.02
2019-04-14T18:41:05.078Z,9.95
2019-04-14T18:43:54.281Z,9.85
2019-04-14T18:46:30.233Z,9.79
2019-04-14T18:49:08.387Z,9.74
2019-04-14T18:52:04.187Z,9.65
2019-04-14T18:54:39.164Z,9.60
2019-04-14T18:57:16.973Z,9.62
2019-04-14T19:00:10.359Z,9.61
2019-04-14T19:02:41.332Z,9.56
2019-04-14T19:05:11.699Z,9.58
2019-04-14T19:07:41.544Z,9.57
2019-04-14T19:10:11.516Z,9.56
2019-04-14T19:13:04.969Z,9.50
2019-04-14T19:15:42.528Z,9.51
2019-04-14T19:18:31.503Z,9.53
2019-04-14T19:21:06.859Z,9.47
2019-04-14T19:23:37.924Z,9.41
2019-04-14T19:26:09.243Z,9.38
2019-04-14T19:28:39.998Z,9.33
2019-04-14T19:31:10.085Z,9.32
2019-04-14T19:33:41.773Z,9.32
2019-04-14T19:36:11.905Z,9.34
2019-04-14T19:38:43.061Z,9.28
2019-04-14T19:41:13.025Z,9.19
2019-04-14T19:43:43.237Z,9.16
2019-04-14T19:46:13.159Z,9.12
2019-04-14T19:48:43.498Z,9.03
2019-04-14T19:51:13.782Z,9.03
2019-04-14T19:53:45.750Z,9.04
2019-04-14T19:56:15.639Z,9.02
2019-04-14T19:58:45.527Z,9.03
2019-04-14T20:01:15.507Z,9.04
2019-04-14T20:03:47.528Z,8.96
2019-04-14T20:06:17.376Z,8.98
2019-04-14T20:08:47.310Z,8.91
2019-04-14T20:11:17.604Z,8.96
2019-04-14T20:13:47.459Z,8.98
2019-04-14T20:16:43.519Z,9.01
2019-04-14T20:19:31.986Z,9.05
2019-04-14T20:22:31.671Z,9.10
2019-04-14T20:25:16.726Z,9.01
2019-04-14T20:27:52.972Z,9.05
2019-04-14T20:30:40.459Z,9.00
2019-04-14T20:33:09.222Z,8.99
2019-04-14T20:35:37.534Z,9.03
2019-04-14T20:38:05.904Z,9.06
2019-04-14T20:40:34.764Z,9.06
2019-04-14T20:43:04.211Z,9.05
2019-04-14T20:45:34.219Z,9.00
2019-04-14T20:48:04.282Z,8.99
2019-04-14T20:50:34.048Z,8.97
2019-04-14T20:53:04.973Z,8.97
2019-04-14T20:55:46.143Z,8.98
2019-04-14T20:58:07.185Z,8.99
2019-04-14T21:00:37.081Z,8.92
2019-04-14T21:03:23.251Z,8.87
2019-04-14T21:06:24.442Z,8.89
2019-04-14T21:09:12.924Z,8.89
2019-04-14T21:12:14.520Z,8.88
2019-04-14T21:14:58.927Z,8.88
2019-04-14T21:17:51.972Z,8.81
2019-04-14T21:20:43.495Z,8.73
2019-04-14T21:23:24.163Z,8.70
2019-04-14T21:26:01.464Z,8.70
2019-04-14T21:28:40.455Z,8.68
2019-04-14T21:31:25.679Z,8.68
2019-04-14T21:34:02.203Z,8.64
2019-04-14T21:36:53.693Z,8.65
2019-04-14T21:39:41.242Z,8.66
2019-04-14T21:42:11.220Z,8.64
2019-04-14T21:44:40.996Z,8.58
2019-04-14T21:47:09.296Z,8.51
2019-04-14T21:49:37.689Z,8.46
2019-04-14T21:52:15.349Z,8.50
2019-04-14T21:54:44.348Z,8.52
2019-04-14T21:57:32.097Z,8.60
2019-04-14T22:00:22.637Z,8.54
2019-04-14T22:03:10.563Z,8.50
2019-04-14T22:05:53.607Z,8.50
2019-04-14T22:08:25.727Z,8.46
2019-04-14T22:10:57.551Z,8.38
2019-04-14T22:13:26.140Z,8.40
2019-04-14T22:15:54.662Z,8.44
2019-04-14T22:18:23.350Z,8.39
2019-04-14T22:20:52.332Z,8.38
2019-04-14T22:23:22.806Z,8.37
2019-04-14T22:25:52.574Z,8.34
2019-04-14T22:28:22.485Z,8.35
2019-04-14T22:30:52.245Z,8.34
2019-04-14T22:33:22.440Z,8.34
2019-04-14T22:35:52.316Z,8.38
2019-04-14T22:38:22.835Z,8.43
2019-04-14T22:40:52.494Z,8.41
2019-04-14T22:43:22.365Z,8.40
2019-04-14T22:45:52.208Z,8.39
2019-04-14T22:48:21.978Z,8.38
2019-04-14T22:50:51.728Z,8.38
2019-04-14T22:53:21.723Z,8.35
2019-04-14T22:55:51.620Z,8.32
2019-04-14T22:58:21.714Z,8.29
2019-04-14T23:01:02.249Z,8.30
2019-04-14T23:03:51.291Z,8.30
2019-04-14T23:06:27.289Z,8.33
2019-04-14T23:09:34.382Z,8.30
2019-04-14T23:12:23.334Z,8.27
2019-04-14T23:14:58.270Z,8.28
2019-04-14T23:17:41.732Z,8.26
2019-04-14T23:20:39.052Z,8.29
2019-04-14T23:23:20.066Z,8.34
2019-04-14T23:25:50.010Z,8.39
2019-04-14T23:28:19.951Z,8.46
2019-04-14T23:30:49.638Z,8.46
2019-04-14T23:33:19.364Z,8.45
2019-04-14T23:35:49.325Z,8.41
2019-04-14T23:38:19.439Z,8.47
2019-04-14T23:40:49.376Z,8.51
2019-04-14T23:43:19.104Z,8.54
2019-04-14T23:45:48.855Z,8.56
2019-04-14T23:48:18.533Z,8.56
2019-04-14T23:50:48.497Z,8.57
2019-04-14T23:53:17.004Z,8.56
2019-04-14T23:55:45.367Z,8.54
2019-04-14T23:58:13.738Z,8.50
